sensor_id;sensor_type;location;lat;lon;timestamp;P1;durP1;ratioP1;P2;durP2;ratioP2
59922;SDS011;45778;51.142;3.732;2023-06-14T00:01:48;6.90;;;3.90;;
59922;SDS011;45778;51.142;3.732;2023-06-14T00:04:14;8.23;;;4.05;;
59922;SDS011;45778;51.142;3.732;2023-06-14T00:06:42;6.53;;;4.10;;
59922;SDS011;45778;51.142;3.732;2023-06-14T00:09:10;6.82;;;4.15;;
59922;SDS011;45778;51.142;3.732;2023-06-14T00:11:38;7.65;;;4.05;;
59922;SDS011;45778;51.142;3.732;2023-06-14T00:14:05;5.90;;;4.45;;
59922;SDS011;45778;51.142;3.732;2023-06-14T00:16:31;5.40;;;4.35;;
59922;SDS011;45778;51.142;3.732;2023-06-14T00:18:58;6.22;;;4.32;;
59922;SDS011;45778;51.142;3.732;2023-06-14T00:21:24;7.75;;;4.03;;
59922;SDS011;45778;51.142;3.732;2023-06-14T00:23:49;6.10;;;4.32;;
59922;SDS011;45778;51.142;3.732;2023-06-14T00:26:15;7.85;;;4.53;;
59922;SDS011;45778;51.142;3.732;2023-06-14T00:28:41;6.85;;;4.57;;
59922;SDS011;45778;51.142;3.732;2023-06-14T00:31:06;6.97;;;4.32;;
59922;SDS011;45778;51.142;3.732;2023-06-14T00:33:32;5.32;;;4.78;;
59922;SDS011;45778;51.142;3.732;2023-06-14T00:35:58;7.57;;;5.00;;
59922;SDS011;45778;51.142;3.732;2023-06-14T00:38:24;7.57;;;4.70;;
59922;SDS011;45778;51.142;3.732;2023-06-14T00:40:50;9.55;;;5.35;;
59922;SDS011;45778;51.142;3.732;2023-06-14T00:43:16;5.47;;;4.75;;
59922;SDS011;45778;51.142;3.732;2023-06-14T00:45:42;7.30;;;4.85;;
59922;SDS011;45778;51.142;3.732;2023-06-14T00:48:07;9.25;;;4.53;;
59922;SDS011;45778;51.142;3.732;2023-06-14T00:50:34;6.90;;;4.80;;
59922;SDS011;45778;51.142;3.732;2023-06-14T00:53:01;6.20;;;4.57;;
59922;SDS011;45778;51.142;3.732;2023-06-14T00:55:28;5.72;;;4.78;;
59922;SDS011;45778;51.142;3.732;2023-06-14T00:57:54;7.82;;;4.22;;
59922;SDS011;45778;51.142;3.732;2023-06-14T01:00:20;5.43;;;4.57;;
59922;SDS011;45778;51.142;3.732;2023-06-14T01:02:47;6.72;;;5.00;;
59922;SDS011;45778;51.142;3.732;2023-06-14T01:05:14;10.57;;;4.70;;
59922;SDS011;45778;51.142;3.732;2023-06-14T01:16:01;5.97;;;4.60;;
59922;SDS011;45778;51.142;3.732;2023-06-14T01:18:28;6.78;;;4.38;;
59922;SDS011;45778;51.142;3.732;2023-06-14T01:20:54;6.78;;;4.90;;
59922;SDS011;45778;51.142;3.732;2023-06-14T01:23:21;6.43;;;4.65;;
59922;SDS011;45778;51.142;3.732;2023-06-14T01:25:48;7.05;;;4.38;;
59922;SDS011;45778;51.142;3.732;2023-06-14T01:28:17;5.88;;;4.47;;
59922;SDS011;45778;51.142;3.732;2023-06-14T01:30:46;8.88;;;4.88;;
59922;SDS011;45778;51.142;3.732;2023-06-14T01:33:17;5.18;;;4.47;;
59922;SDS011;45778;51.142;3.732;2023-06-14T01:35:47;7.45;;;4.78;;
59922;SDS011;45778;51.142;3.732;2023-06-14T01:38:14;5.93;;;4.75;;
59922;SDS011;45778;51.142;3.732;2023-06-14T01:40:45;5.30;;;4.47;;
59922;SDS011;45778;51.142;3.732;2023-06-14T01:43:15;15.48;;;4.90;;
59922;SDS011;45778;51.142;3.732;2023-06-14T01:45:42;6.68;;;4.32;;
59922;SDS011;45778;51.142;3.732;2023-06-14T01:48:09;4.85;;;4.00;;
59922;SDS011;45778;51.142;3.732;2023-06-14T01:50:35;6.82;;;4.47;;
59922;SDS011;45778;51.142;3.732;2023-06-14T01:53:00;6.05;;;3.83;;
59922;SDS011;45778;51.142;3.732;2023-06-14T01:55:26;6.15;;;4.32;;
59922;SDS011;45778;51.142;3.732;2023-06-14T01:57:52;7.75;;;4.45;;
59922;SDS011;45778;51.142;3.732;2023-06-14T02:00:19;6.43;;;3.90;;
59922;SDS011;45778;51.142;3.732;2023-06-14T02:02:46;6.57;;;4.20;;
59922;SDS011;45778;51.142;3.732;2023-06-14T02:05:12;7.63;;;4.95;;
59922;SDS011;45778;51.142;3.732;2023-06-14T02:07:38;6.43;;;4.63;;
59922;SDS011;45778;51.142;3.732;2023-06-14T02:10:05;5.30;;;4.45;;
59922;SDS011;45778;51.142;3.732;2023-06-14T02:12:32;8.02;;;4.15;;
59922;SDS011;45778;51.142;3.732;2023-06-14T02:14:57;8.63;;;4.28;;
59922;SDS011;45778;51.142;3.732;2023-06-14T02:17:23;7.00;;;4.53;;
59922;SDS011;45778;51.142;3.732;2023-06-14T02:19:49;7.53;;;4.72;;
59922;SDS011;45778;51.142;3.732;2023-06-14T02:22:15;9.77;;;5.20;;
59922;SDS011;45778;51.142;3.732;2023-06-14T02:24:41;8.25;;;4.63;;
59922;SDS011;45778;51.142;3.732;2023-06-14T02:27:07;6.93;;;4.35;;
59922;SDS011;45778;51.142;3.732;2023-06-14T02:29:35;4.97;;;4.28;;
59922;SDS011;45778;51.142;3.732;2023-06-14T02:32:01;6.50;;;4.50;;
59922;SDS011;45778;51.142;3.732;2023-06-14T02:34:27;8.38;;;5.05;;
59922;SDS011;45778;51.142;3.732;2023-06-14T02:36:53;5.82;;;4.07;;
59922;SDS011;45778;51.142;3.732;2023-06-14T02:39:20;6.45;;;4.40;;
59922;SDS011;45778;51.142;3.732;2023-06-14T02:41:48;9.60;;;4.32;;
59922;SDS011;45778;51.142;3.732;2023-06-14T02:44:14;5.53;;;3.97;;
59922;SDS011;45778;51.142;3.732;2023-06-14T02:46:42;5.28;;;4.15;;
59922;SDS011;45778;51.142;3.732;2023-06-14T02:49:08;6.07;;;4.45;;
59922;SDS011;45778;51.142;3.732;2023-06-14T02:51:35;6.43;;;4.30;;
59922;SDS011;45778;51.142;3.732;2023-06-14T02:54:00;6.82;;;4.65;;
59922;SDS011;45778;51.142;3.732;2023-06-14T02:56:26;6.82;;;4.55;;
59922;SDS011;45778;51.142;3.732;2023-06-14T02:58:52;6.32;;;4.25;;
59922;SDS011;45778;51.142;3.732;2023-06-14T03:01:18;6.90;;;4.50;;
59922;SDS011;45778;51.142;3.732;2023-06-14T03:03:45;7.50;;;4.50;;
59922;SDS011;45778;51.142;3.732;2023-06-14T03:06:11;7.82;;;4.93;;
59922;SDS011;45778;51.142;3.732;2023-06-14T03:08:38;9.40;;;5.10;;
59922;SDS011;45778;51.142;3.732;2023-06-14T03:11:04;8.05;;;4.18;;
59922;SDS011;45778;51.142;3.732;2023-06-14T03:13:30;9.77;;;4.68;;
59922;SDS011;45778;51.142;3.732;2023-06-14T03:15:59;6.70;;;4.78;;
59922;SDS011;45778;51.142;3.732;2023-06-14T03:18:27;8.43;;;4.55;;
59922;SDS011;45778;51.142;3.732;2023-06-14T03:20:55;8.35;;;5.10;;
59922;SDS011;45778;51.142;3.732;2023-06-14T03:23:22;10.45;;;4.82;;
59922;SDS011;45778;51.142;3.732;2023-06-14T03:25:48;7.07;;;4.55;;
59922;SDS011;45778;51.142;3.732;2023-06-14T03:28:14;9.63;;;4.50;;
59922;SDS011;45778;51.142;3.732;2023-06-14T03:30:40;6.65;;;5.07;;
59922;SDS011;45778;51.142;3.732;2023-06-14T03:33:05;8.52;;;4.65;;
59922;SDS011;45778;51.142;3.732;2023-06-14T03:35:31;7.97;;;4.32;;
59922;SDS011;45778;51.142;3.732;2023-06-14T03:37:57;7.35;;;4.82;;
59922;SDS011;45778;51.142;3.732;2023-06-14T03:40:22;6.55;;;4.50;;
59922;SDS011;45778;51.142;3.732;2023-06-14T03:42:51;6.47;;;4.60;;
59922;SDS011;45778;51.142;3.732;2023-06-14T03:45:18;8.70;;;4.80;;
59922;SDS011;45778;51.142;3.732;2023-06-14T03:47:44;6.30;;;4.20;;
59922;SDS011;45778;51.142;3.732;2023-06-14T03:50:09;6.38;;;4.97;;
59922;SDS011;45778;51.142;3.732;2023-06-14T03:52:36;13.25;;;5.50;;
59922;SDS011;45778;51.142;3.732;2023-06-14T03:55:01;7.85;;;4.40;;
59922;SDS011;45778;51.142;3.732;2023-06-14T03:57:27;9.10;;;5.32;;
59922;SDS011;45778;51.142;3.732;2023-06-14T03:59:54;10.82;;;5.25;;
59922;SDS011;45778;51.142;3.732;2023-06-14T04:02:20;6.53;;;4.68;;
59922;SDS011;45778;51.142;3.732;2023-06-14T04:04:45;10.35;;;5.05;;
59922;SDS011;45778;51.142;3.732;2023-06-14T04:07:13;11.90;;;4.97;;
59922;SDS011;45778;51.142;3.732;2023-06-14T04:09:39;12.68;;;5.05;;
59922;SDS011;45778;51.142;3.732;2023-06-14T04:12:06;6.65;;;4.38;;
59922;SDS011;45778;51.142;3.732;2023-06-14T04:14:33;9.85;;;4.85;;
59922;SDS011;45778;51.142;3.732;2023-06-14T04:16:59;5.30;;;4.13;;
59922;SDS011;45778;51.142;3.732;2023-06-14T04:19:26;5.55;;;4.63;;
59922;SDS011;45778;51.142;3.732;2023-06-14T04:21:51;9.27;;;4.82;;
59922;SDS011;45778;51.142;3.732;2023-06-14T04:24:17;7.20;;;4.80;;
59922;SDS011;45778;51.142;3.732;2023-06-14T04:26:44;8.65;;;4.35;;
59922;SDS011;45778;51.142;3.732;2023-06-14T04:29:10;8.25;;;5.03;;
59922;SDS011;45778;51.142;3.732;2023-06-14T04:31:41;9.98;;;4.45;;
59922;SDS011;45778;51.142;3.732;2023-06-14T04:34:07;6.93;;;4.80;;
59922;SDS011;45778;51.142;3.732;2023-06-14T04:36:33;9.15;;;4.93;;
59922;SDS011;45778;51.142;3.732;2023-06-14T04:39:02;8.50;;;5.40;;
59922;SDS011;45778;51.142;3.732;2023-06-14T04:41:31;10.75;;;5.35;;
59922;SDS011;45778;51.142;3.732;2023-06-14T04:43:57;7.28;;;5.00;;
59922;SDS011;45778;51.142;3.732;2023-06-14T04:46:27;8.85;;;4.95;;
59922;SDS011;45778;51.142;3.732;2023-06-14T04:48:53;8.57;;;5.20;;
59922;SDS011;45778;51.142;3.732;2023-06-14T04:51:19;8.85;;;4.85;;
59922;SDS011;45778;51.142;3.732;2023-06-14T04:53:55;12.45;;;4.80;;
59922;SDS011;45778;51.142;3.732;2023-06-14T04:56:24;12.50;;;5.82;;
59922;SDS011;45778;51.142;3.732;2023-06-14T04:58:51;7.07;;;4.63;;
59922;SDS011;45778;51.142;3.732;2023-06-14T05:01:18;11.63;;;4.85;;
59922;SDS011;45778;51.142;3.732;2023-06-14T05:03:44;7.18;;;4.18;;
59922;SDS011;45778;51.142;3.732;2023-06-14T05:06:13;11.32;;;4.47;;
59922;SDS011;45778;51.142;3.732;2023-06-14T05:08:39;7.00;;;4.50;;
59922;SDS011;45778;51.142;3.732;2023-06-14T05:11:05;11.63;;;5.00;;
59922;SDS011;45778;51.142;3.732;2023-06-14T05:13:31;7.13;;;4.53;;
59922;SDS011;45778;51.142;3.732;2023-06-14T05:15:57;13.13;;;4.85;;
59922;SDS011;45778;51.142;3.732;2023-06-14T05:18:24;7.22;;;3.92;;
59922;SDS011;45778;51.142;3.732;2023-06-14T05:20:50;11.25;;;5.07;;
59922;SDS011;45778;51.142;3.732;2023-06-14T05:23:16;11.27;;;5.18;;
59922;SDS011;45778;51.142;3.732;2023-06-14T05:25:45;9.27;;;5.22;;
59922;SDS011;45778;51.142;3.732;2023-06-14T05:28:11;9.10;;;4.60;;
59922;SDS011;45778;51.142;3.732;2023-06-14T05:30:40;10.98;;;5.43;;
59922;SDS011;45778;51.142;3.732;2023-06-14T05:33:06;7.63;;;4.43;;
59922;SDS011;45778;51.142;3.732;2023-06-14T05:35:31;8.27;;;5.03;;
59922;SDS011;45778;51.142;3.732;2023-06-14T05:37:57;8.27;;;4.72;;
59922;SDS011;45778;51.142;3.732;2023-06-14T05:40:23;6.65;;;4.00;;
59922;SDS011;45778;51.142;3.732;2023-06-14T05:42:48;11.60;;;4.00;;
59922;SDS011;45778;51.142;3.732;2023-06-14T05:45:14;7.70;;;4.10;;
59922;SDS011;45778;51.142;3.732;2023-06-14T05:47:42;7.20;;;4.57;;
59922;SDS011;45778;51.142;3.732;2023-06-14T05:50:08;18.02;;;5.78;;
59922;SDS011;45778;51.142;3.732;2023-06-14T05:52:34;15.73;;;5.68;;
59922;SDS011;45778;51.142;3.732;2023-06-14T05:55:03;14.98;;;6.38;;
59922;SDS011;45778;51.142;3.732;2023-06-14T05:57:30;18.80;;;5.00;;
59922;SDS011;45778;51.142;3.732;2023-06-14T05:59:55;12.45;;;5.65;;
59922;SDS011;45778;51.142;3.732;2023-06-14T06:02:21;11.88;;;5.20;;
59922;SDS011;45778;51.142;3.732;2023-06-14T06:04:46;15.15;;;5.25;;
59922;SDS011;45778;51.142;3.732;2023-06-14T06:07:12;10.35;;;5.38;;
59922;SDS011;45778;51.142;3.732;2023-06-14T06:09:38;9.25;;;4.93;;
59922;SDS011;45778;51.142;3.732;2023-06-14T06:12:06;7.30;;;4.85;;
59922;SDS011;45778;51.142;3.732;2023-06-14T06:14:32;8.60;;;5.60;;
59922;SDS011;45778;51.142;3.732;2023-06-14T06:16:58;9.10;;;5.60;;
59922;SDS011;45778;51.142;3.732;2023-06-14T06:19:23;10.00;;;5.47;;
59922;SDS011;45778;51.142;3.732;2023-06-14T06:21:49;13.10;;;5.65;;
59922;SDS011;45778;51.142;3.732;2023-06-14T06:24:15;9.57;;;5.22;;
59922;SDS011;45778;51.142;3.732;2023-06-14T06:26:41;8.75;;;5.20;;
59922;SDS011;45778;51.142;3.732;2023-06-14T06:29:06;10.70;;;5.70;;
59922;SDS011;45778;51.142;3.732;2023-06-14T06:31:32;10.90;;;5.57;;
59922;SDS011;45778;51.142;3.732;2023-06-14T06:33:58;8.88;;;4.93;;
59922;SDS011;45778;51.142;3.732;2023-06-14T06:36:23;9.27;;;6.20;;
59922;SDS011;45778;51.142;3.732;2023-06-14T06:38:49;10.60;;;5.35;;
59922;SDS011;45778;51.142;3.732;2023-06-14T06:41:15;7.50;;;5.20;;
59922;SDS011;45778;51.142;3.732;2023-06-14T06:43:41;10.38;;;5.68;;
59922;SDS011;45778;51.142;3.732;2023-06-14T06:46:07;9.02;;;6.32;;
59922;SDS011;45778;51.142;3.732;2023-06-14T06:48:32;9.23;;;5.63;;
59922;SDS011;45778;51.142;3.732;2023-06-14T06:50:58;11.82;;;5.80;;
59922;SDS011;45778;51.142;3.732;2023-06-14T06:53:24;9.27;;;5.28;;
59922;SDS011;45778;51.142;3.732;2023-06-14T06:55:49;13.32;;;5.75;;
59922;SDS011;45778;51.142;3.732;2023-06-14T06:58:15;8.45;;;5.25;;
59922;SDS011;45778;51.142;3.732;2023-06-14T07:00:41;10.70;;;6.00;;
59922;SDS011;45778;51.142;3.732;2023-06-14T07:03:06;8.70;;;5.88;;
59922;SDS011;45778;51.142;3.732;2023-06-14T07:05:32;10.27;;;5.28;;
59922;SDS011;45778;51.142;3.732;2023-06-14T07:07:58;12.85;;;5.30;;
59922;SDS011;45778;51.142;3.732;2023-06-14T07:10:24;10.40;;;5.20;;
59922;SDS011;45778;51.142;3.732;2023-06-14T07:12:50;7.55;;;4.63;;
59922;SDS011;45778;51.142;3.732;2023-06-14T07:15:16;7.30;;;5.75;;
59922;SDS011;45778;51.142;3.732;2023-06-14T07:17:42;14.50;;;5.00;;
59922;SDS011;45778;51.142;3.732;2023-06-14T07:20:08;10.45;;;5.20;;
59922;SDS011;45778;51.142;3.732;2023-06-14T07:22:37;11.32;;;5.47;;
59922;SDS011;45778;51.142;3.732;2023-06-14T07:25:08;10.95;;;5.70;;
59922;SDS011;45778;51.142;3.732;2023-06-14T07:27:34;9.05;;;5.80;;
59922;SDS011;45778;51.142;3.732;2023-06-14T07:30:00;11.40;;;6.00;;
59922;SDS011;45778;51.142;3.732;2023-06-14T07:32:26;15.98;;;6.63;;
59922;SDS011;45778;51.142;3.732;2023-06-14T07:34:51;8.50;;;5.03;;
59922;SDS011;45778;51.142;3.732;2023-06-14T07:37:17;19.58;;;8.50;;
59922;SDS011;45778;51.142;3.732;2023-06-14T07:39:42;15.73;;;7.60;;
59922;SDS011;45778;51.142;3.732;2023-06-14T07:42:08;13.75;;;7.22;;
59922;SDS011;45778;51.142;3.732;2023-06-14T07:44:34;12.80;;;7.50;;
59922;SDS011;45778;51.142;3.732;2023-06-14T07:46:59;24.88;;;11.40;;
59922;SDS011;45778;51.142;3.732;2023-06-14T07:49:26;28.20;;;12.05;;
59922;SDS011;45778;51.142;3.732;2023-06-14T07:51:52;21.42;;;10.82;;
59922;SDS011;45778;51.142;3.732;2023-06-14T07:54:18;17.58;;;9.05;;
59922;SDS011;45778;51.142;3.732;2023-06-14T07:56:45;21.80;;;9.82;;
59922;SDS011;45778;51.142;3.732;2023-06-14T07:59:11;23.45;;;10.43;;
59922;SDS011;45778;51.142;3.732;2023-06-14T08:01:36;17.48;;;8.77;;
59922;SDS011;45778;51.142;3.732;2023-06-14T08:04:02;22.40;;;8.55;;
59922;SDS011;45778;51.142;3.732;2023-06-14T08:06:28;18.15;;;8.20;;
59922;SDS011;45778;51.142;3.732;2023-06-14T08:08:55;18.23;;;8.43;;
59922;SDS011;45778;51.142;3.732;2023-06-14T08:11:21;18.17;;;8.32;;
59922;SDS011;45778;51.142;3.732;2023-06-14T08:13:49;24.98;;;10.15;;
59922;SDS011;45778;51.142;3.732;2023-06-14T08:16:14;19.88;;;8.43;;
59922;SDS011;45778;51.142;3.732;2023-06-14T08:18:40;17.85;;;8.27;;
59922;SDS011;45778;51.142;3.732;2023-06-14T08:21:05;16.15;;;7.75;;
59922;SDS011;45778;51.142;3.732;2023-06-14T08:23:32;10.10;;;6.60;;
59922;SDS011;45778;51.142;3.732;2023-06-14T08:25:58;10.38;;;5.57;;
59922;SDS011;45778;51.142;3.732;2023-06-14T08:28:26;15.73;;;6.22;;
59922;SDS011;45778;51.142;3.732;2023-06-14T08:30:52;13.35;;;6.65;;
59922;SDS011;45778;51.142;3.732;2023-06-14T08:33:17;11.23;;;6.35;;
59922;SDS011;45778;51.142;3.732;2023-06-14T08:35:43;13.20;;;5.85;;
59922;SDS011;45778;51.142;3.732;2023-06-14T08:38:10;11.50;;;5.43;;
59922;SDS011;45778;51.142;3.732;2023-06-14T08:40:37;10.00;;;5.53;;
59922;SDS011;45778;51.142;3.732;2023-06-14T08:43:05;10.13;;;5.45;;
59922;SDS011;45778;51.142;3.732;2023-06-14T08:45:31;7.80;;;5.03;;
59922;SDS011;45778;51.142;3.732;2023-06-14T08:47:57;8.57;;;5.40;;
59922;SDS011;45778;51.142;3.732;2023-06-14T08:50:25;7.90;;;4.93;;
59922;SDS011;45778;51.142;3.732;2023-06-14T08:52:53;9.20;;;4.88;;
59922;SDS011;45778;51.142;3.732;2023-06-14T08:55:21;7.88;;;5.32;;
59922;SDS011;45778;51.142;3.732;2023-06-14T08:57:52;7.03;;;5.43;;
59922;SDS011;45778;51.142;3.732;2023-06-14T09:00:19;7.78;;;5.07;;
59922;SDS011;45778;51.142;3.732;2023-06-14T09:02:46;9.95;;;5.05;;
59922;SDS011;45778;51.142;3.732;2023-06-14T09:05:12;6.80;;;5.10;;
59922;SDS011;45778;51.142;3.732;2023-06-14T09:07:41;6.38;;;3.95;;
59922;SDS011;45778;51.142;3.732;2023-06-14T09:10:12;6.00;;;4.53;;
59922;SDS011;45778;51.142;3.732;2023-06-14T09:12:38;10.88;;;4.68;;
59922;SDS011;45778;51.142;3.732;2023-06-14T09:15:05;6.28;;;5.05;;
59922;SDS011;45778;51.142;3.732;2023-06-14T09:17:33;7.05;;;5.07;;
59922;SDS011;45778;51.142;3.732;2023-06-14T09:20:03;9.00;;;4.80;;
59922;SDS011;45778;51.142;3.732;2023-06-14T09:22:34;7.17;;;3.90;;
59922;SDS011;45778;51.142;3.732;2023-06-14T09:25:01;6.28;;;4.18;;
59922;SDS011;45778;51.142;3.732;2023-06-14T09:27:27;6.57;;;4.28;;
59922;SDS011;45778;51.142;3.732;2023-06-14T09:29:53;4.65;;;3.92;;
59922;SDS011;45778;51.142;3.732;2023-06-14T09:32:20;6.72;;;4.40;;
59922;SDS011;45778;51.142;3.732;2023-06-14T09:34:46;4.55;;;3.60;;
59922;SDS011;45778;51.142;3.732;2023-06-14T09:37:12;7.93;;;4.00;;
59922;SDS011;45778;51.142;3.732;2023-06-14T09:39:50;6.72;;;4.25;;
59922;SDS011;45778;51.142;3.732;2023-06-14T09:42:17;6.90;;;4.03;;
59922;SDS011;45778;51.142;3.732;2023-06-14T09:44:44;5.47;;;3.88;;
59922;SDS011;45778;51.142;3.732;2023-06-14T09:47:12;5.07;;;3.50;;
59922;SDS011;45778;51.142;3.732;2023-06-14T09:49:39;11.82;;;5.40;;
59922;SDS011;45778;51.142;3.732;2023-06-14T09:52:05;7.13;;;4.82;;
59922;SDS011;45778;51.142;3.732;2023-06-14T09:54:35;10.55;;;4.90;;
59922;SDS011;45778;51.142;3.732;2023-06-14T09:57:07;5.35;;;3.85;;
59922;SDS011;45778;51.142;3.732;2023-06-14T09:59:36;4.68;;;3.80;;
59922;SDS011;45778;51.142;3.732;2023-06-14T10:02:10;9.07;;;3.88;;
59922;SDS011;45778;51.142;3.732;2023-06-14T10:05:07;4.18;;;3.40;;
59922;SDS011;45778;51.142;3.732;2023-06-14T10:07:40;5.45;;;3.78;;
59922;SDS011;45778;51.142;3.732;2023-06-14T10:10:17;5.88;;;4.13;;
59922;SDS011;45778;51.142;3.732;2023-06-14T10:12:43;16.70;;;4.78;;
59922;SDS011;45778;51.142;3.732;2023-06-14T10:15:10;6.30;;;4.00;;
59922;SDS011;45778;51.142;3.732;2023-06-14T10:17:52;5.72;;;4.05;;
59922;SDS011;45778;51.142;3.732;2023-06-14T10:21:12;6.05;;;3.30;;
59922;SDS011;45778;51.142;3.732;2023-06-14T10:23:38;5.03;;;3.88;;
59922;SDS011;45778;51.142;3.732;2023-06-14T10:26:13;3.63;;;3.17;;
59922;SDS011;45778;51.142;3.732;2023-06-14T10:28:54;3.60;;;3.28;;
59922;SDS011;45778;51.142;3.732;2023-06-14T10:31:41;7.38;;;3.83;;
59922;SDS011;45778;51.142;3.732;2023-06-14T10:34:09;4.60;;;3.75;;
59922;SDS011;45778;51.142;3.732;2023-06-14T10:36:34;6.47;;;3.63;;
59922;SDS011;45778;51.142;3.732;2023-06-14T10:39:04;6.85;;;3.50;;
59922;SDS011;45778;51.142;3.732;2023-06-14T10:46:38;9.35;;;4.57;;
59922;SDS011;45778;51.142;3.732;2023-06-14T10:49:12;6.47;;;3.63;;
59922;SDS011;45778;51.142;3.732;2023-06-14T10:51:44;5.97;;;3.80;;
59922;SDS011;45778;51.142;3.732;2023-06-14T10:54:22;5.35;;;4.15;;
59922;SDS011;45778;51.142;3.732;2023-06-14T10:56:49;5.75;;;4.47;;
59922;SDS011;45778;51.142;3.732;2023-06-14T10:59:17;10.50;;;4.95;;
59922;SDS011;45778;51.142;3.732;2023-06-14T11:04:50;6.13;;;3.90;;
59922;SDS011;45778;51.142;3.732;2023-06-14T11:09:51;5.85;;;4.70;;
59922;SDS011;45778;51.142;3.732;2023-06-14T11:12:29;9.27;;;4.70;;
59922;SDS011;45778;51.142;3.732;2023-06-14T11:14:58;5.65;;;3.75;;
59922;SDS011;45778;51.142;3.732;2023-06-14T11:17:24;5.05;;;3.90;;
59922;SDS011;45778;51.142;3.732;2023-06-14T11:19:51;5.13;;;4.00;;
59922;SDS011;45778;51.142;3.732;2023-06-14T11:22:41;4.10;;;3.70;;
59922;SDS011;45778;51.142;3.732;2023-06-14T11:25:13;5.38;;;3.63;;
59922;SDS011;45778;51.142;3.732;2023-06-14T11:27:41;4.10;;;3.67;;
59922;SDS011;45778;51.142;3.732;2023-06-14T11:30:08;6.90;;;4.22;;
59922;SDS011;45778;51.142;3.732;2023-06-14T11:32:35;3.83;;;3.45;;
59922;SDS011;45778;51.142;3.732;2023-06-14T11:35:02;4.05;;;3.65;;
59922;SDS011;45778;51.142;3.732;2023-06-14T11:37:28;5.50;;;3.97;;
59922;SDS011;45778;51.142;3.732;2023-06-14T11:39:58;6.50;;;3.90;;
59922;SDS011;45778;51.142;3.732;2023-06-14T11:42:29;4.43;;;3.72;;
59922;SDS011;45778;51.142;3.732;2023-06-14T11:44:55;5.03;;;4.20;;
59922;SDS011;45778;51.142;3.732;2023-06-14T11:47:21;7.47;;;4.05;;
59922;SDS011;45778;51.142;3.732;2023-06-14T11:49:48;6.18;;;4.18;;
59922;SDS011;45778;51.142;3.732;2023-06-14T11:52:14;5.53;;;3.85;;
59922;SDS011;45778;51.142;3.732;2023-06-14T11:54:40;5.68;;;4.03;;
59922;SDS011;45778;51.142;3.732;2023-06-14T11:57:09;6.03;;;4.25;;
59922;SDS011;45778;51.142;3.732;2023-06-14T11:59:38;6.82;;;4.57;;
59922;SDS011;45778;51.142;3.732;2023-06-14T12:02:05;7.43;;;4.85;;
59922;SDS011;45778;51.142;3.732;2023-06-14T12:04:40;6.88;;;4.57;;
59922;SDS011;45778;51.142;3.732;2023-06-14T12:12:24;5.13;;;4.00;;
59922;SDS011;45778;51.142;3.732;2023-06-14T12:14:50;6.40;;;4.50;;
59922;SDS011;45778;51.142;3.732;2023-06-14T12:17:17;5.45;;;4.30;;
59922;SDS011;45778;51.142;3.732;2023-06-14T12:19:44;5.72;;;4.47;;
59922;SDS011;45778;51.142;3.732;2023-06-14T12:22:10;6.35;;;3.92;;
59922;SDS011;45778;51.142;3.732;2023-06-14T12:24:37;7.93;;;5.10;;
59922;SDS011;45778;51.142;3.732;2023-06-14T12:27:04;8.85;;;5.28;;
59922;SDS011;45778;51.142;3.732;2023-06-14T12:29:30;6.40;;;4.82;;
59922;SDS011;45778;51.142;3.732;2023-06-14T12:31:56;8.45;;;5.18;;
59922;SDS011;45778;51.142;3.732;2023-06-14T12:34:26;11.50;;;5.30;;
59922;SDS011;45778;51.142;3.732;2023-06-14T12:36:52;6.20;;;5.07;;
59922;SDS011;45778;51.142;3.732;2023-06-14T12:39:19;7.18;;;4.00;;
59922;SDS011;45778;51.142;3.732;2023-06-14T12:41:45;6.47;;;4.55;;
59922;SDS011;45778;51.142;3.732;2023-06-14T12:44:13;6.90;;;4.07;;
59922;SDS011;45778;51.142;3.732;2023-06-14T12:46:40;5.28;;;4.15;;
59922;SDS011;45778;51.142;3.732;2023-06-14T12:49:10;4.28;;;3.92;;
59922;SDS011;45778;51.142;3.732;2023-06-14T12:51:36;5.60;;;4.25;;
59922;SDS011;45778;51.142;3.732;2023-06-14T12:54:03;4.15;;;3.58;;
59922;SDS011;45778;51.142;3.732;2023-06-14T12:56:29;9.93;;;4.53;;
59922;SDS011;45778;51.142;3.732;2023-06-14T12:58:55;5.95;;;4.05;;
59922;SDS011;45778;51.142;3.732;2023-06-14T13:01:20;4.78;;;3.90;;
59922;SDS011;45778;51.142;3.732;2023-06-14T13:03:46;5.38;;;4.55;;
59922;SDS011;45778;51.142;3.732;2023-06-14T13:06:12;7.40;;;3.92;;
59922;SDS011;45778;51.142;3.732;2023-06-14T13:08:38;7.88;;;4.50;;
59922;SDS011;45778;51.142;3.732;2023-06-14T13:11:04;8.63;;;4.47;;
59922;SDS011;45778;51.142;3.732;2023-06-14T13:13:30;6.22;;;5.05;;
59922;SDS011;45778;51.142;3.732;2023-06-14T13:15:55;8.15;;;4.03;;
59922;SDS011;45778;51.142;3.732;2023-06-14T13:18:21;5.78;;;4.10;;
59922;SDS011;45778;51.142;3.732;2023-06-14T13:20:47;9.77;;;4.38;;
59922;SDS011;45778;51.142;3.732;2023-06-14T13:23:12;4.70;;;4.25;;
59922;SDS011;45778;51.142;3.732;2023-06-14T13:25:38;5.68;;;4.50;;
59922;SDS011;45778;51.142;3.732;2023-06-14T13:28:05;4.18;;;3.78;;
59922;SDS011;45778;51.142;3.732;2023-06-14T13:30:31;5.57;;;4.43;;
59922;SDS011;45778;51.142;3.732;2023-06-14T13:32:58;5.07;;;3.85;;
59922;SDS011;45778;51.142;3.732;2023-06-14T13:35:24;4.63;;;3.92;;
59922;SDS011;45778;51.142;3.732;2023-06-14T13:37:50;7.00;;;3.97;;
59922;SDS011;45778;51.142;3.732;2023-06-14T13:40:16;5.30;;;4.35;;
59922;SDS011;45778;51.142;3.732;2023-06-14T13:42:42;4.28;;;3.88;;
59922;SDS011;45778;51.142;3.732;2023-06-14T13:45:08;3.47;;;3.17;;
59922;SDS011;45778;51.142;3.732;2023-06-14T13:47:35;5.65;;;3.78;;
59922;SDS011;45778;51.142;3.732;2023-06-14T13:50:01;4.85;;;3.35;;
59922;SDS011;45778;51.142;3.732;2023-06-14T13:52:28;10.05;;;3.97;;
59922;SDS011;45778;51.142;3.732;2023-06-14T13:54:53;8.70;;;4.38;;
59922;SDS011;45778;51.142;3.732;2023-06-14T13:57:19;5.53;;;3.75;;
59922;SDS011;45778;51.142;3.732;2023-06-14T13:59:45;6.90;;;3.58;;
59922;SDS011;45778;51.142;3.732;2023-06-14T14:02:11;4.10;;;3.05;;
59922;SDS011;45778;51.142;3.732;2023-06-14T14:04:37;6.93;;;3.53;;
59922;SDS011;45778;51.142;3.732;2023-06-14T14:07:04;11.00;;;3.47;;
59922;SDS011;45778;51.142;3.732;2023-06-14T14:09:31;4.65;;;3.17;;
59922;SDS011;45778;51.142;3.732;2023-06-14T14:12:00;3.33;;;3.03;;
59922;SDS011;45778;51.142;3.732;2023-06-14T14:14:30;4.22;;;3.83;;
59922;SDS011;45778;51.142;3.732;2023-06-14T14:16:57;12.45;;;3.40;;
59922;SDS011;45778;51.142;3.732;2023-06-14T14:19:23;5.30;;;3.13;;
59922;SDS011;45778;51.142;3.732;2023-06-14T14:21:49;4.20;;;3.30;;
59922;SDS011;45778;51.142;3.732;2023-06-14T14:24:15;3.55;;;2.75;;
59922;SDS011;45778;51.142;3.732;2023-06-14T14:26:41;5.25;;;3.17;;
59922;SDS011;45778;51.142;3.732;2023-06-14T14:29:07;7.25;;;3.20;;
59922;SDS011;45778;51.142;3.732;2023-06-14T14:31:33;4.28;;;2.92;;
59922;SDS011;45778;51.142;3.732;2023-06-14T14:33:59;6.03;;;3.20;;
59922;SDS011;45778;51.142;3.732;2023-06-14T14:36:25;4.97;;;2.72;;
59922;SDS011;45778;51.142;3.732;2023-06-14T14:38:50;5.13;;;3.30;;
59922;SDS011;45778;51.142;3.732;2023-06-14T14:41:18;3.42;;;2.70;;
59922;SDS011;45778;51.142;3.732;2023-06-14T14:43:44;7.38;;;3.00;;
59922;SDS011;45778;51.142;3.732;2023-06-14T14:46:10;4.18;;;2.70;;
59922;SDS011;45778;51.142;3.732;2023-06-14T14:48:35;4.90;;;3.00;;
59922;SDS011;45778;51.142;3.732;2023-06-14T14:51:01;3.08;;;2.78;;
59922;SDS011;45778;51.142;3.732;2023-06-14T14:53:27;4.32;;;2.63;;
59922;SDS011;45778;51.142;3.732;2023-06-14T14:55:53;6.13;;;2.63;;
59922;SDS011;45778;51.142;3.732;2023-06-14T14:58:18;4.20;;;3.05;;
59922;SDS011;45778;51.142;3.732;2023-06-14T15:00:45;3.20;;;2.58;;
59922;SDS011;45778;51.142;3.732;2023-06-14T15:03:11;2.55;;;2.20;;
59922;SDS011;45778;51.142;3.732;2023-06-14T15:05:36;3.78;;;1.98;;
59922;SDS011;45778;51.142;3.732;2023-06-14T15:08:02;3.38;;;2.00;;
59922;SDS011;45778;51.142;3.732;2023-06-14T15:10:29;2.45;;;1.77;;